Time;durP1;ratioP1;P1;durP2;ratioP2;P2;SDS_P1;SDS_P2;PMS_P1;PMS_P2;Temp;Humidity;BMP_temperature;BMP_pressure;BME280_temperature;BME280_humidity;BME280_pressure;Samples;Min_cycle;Max_cycle;Signal;HPM_P1;HPM_P2
2022/09/25 00:01:36;;;;;;;0.82;0.82;;;;;;;11.90;75.81;99390.38;5115359;28;20051;-67
2022/09/25 00:04:05;;;;;;;1.10;1.00;;;;;;;11.90;75.83;99390.38;5114934;28;20039;-66
2022/09/25 00:06:34;;;;;;;0.40;0.40;;;;;;;11.89;75.71;99385.28;5114984;28;20032;-67
2022/09/25 00:09:03;;;;;;;2.22;2.03;;;;;;;11.91;75.93;99386.97;5114892;28;20036;-66
2022/09/25 00:11:38;;;;;;;0.50;0.50;;;;;;;11.92;75.91;99378.44;5115186;28;20043;-66
2022/09/25 00:14:07;;;;;;;1.35;1.25;;;;;;;11.96;75.95;99369.00;5115221;27;20090;-67
2022/09/25 00:16:36;;;;;;;1.13;1.02;;;;;;;11.98;75.78;99369.84;5114776;28;20036;-66
2022/09/25 00:21:44;;;;;;;0.57;0.57;;;;;;;12.02;75.91;99369.78;5114987;28;20466;-66
2022/09/25 00:24:13;;;;;;;1.20;1.10;;;;;;;11.99;75.92;99362.16;5114580;28;20046;-67
2022/09/25 00:26:44;;;;;;;1.25;0.82;;;;;;;12.00;76.14;99347.63;5114601;28;20088;-66
2022/09/25 00:29:16;;;;;;;0.60;0.50;;;;;;;12.03;76.00;99355.28;5114830;28;20042;-67
2022/09/25 00:31:45;;;;;;;0.40;0.40;;;;;;;12.04;76.00;99362.94;5114610;28;20047;-67
2022/09/25 00:34:14;;;;;;;0.82;0.82;;;;;;;12.05;75.83;99354.41;5114599;28;20050;-67
2022/09/25 00:36:42;;;;;;;1.38;1.15;;;;;;;12.05;76.04;99354.41;5115025;28;20036;-66
2022/09/25 00:39:11;;;;;;;1.25;1.15;;;;;;;12.02;75.83;99351.88;5114398;28;20042;-66
2022/09/25 00:41:43;;;;;;;0.77;0.65;;;;;;;11.99;75.92;99344.25;5114701;28;20067;-66
2022/09/25 00:44:32;;;;;;;1.02;0.73;;;;;;;12.01;76.01;99339.97;5114106;28;20075;-66
2022/09/25 00:47:02;;;;;;;0.88;0.85;;;;;;;12.00;75.96;99328.03;5114658;28;20481;-67
2022/09/25 00:49:31;;;;;;;0.50;0.50;;;;;;;11.98;75.95;99327.22;5114553;28;20089;-66
2022/09/25 00:52:06;;;;;;;0.60;0.60;;;;;;;11.96;75.82;99339.19;5114160;28;20519;-66
2022/09/25 00:54:38;;;;;;;2.35;1.40;;;;;;;11.98;76.16;99342.56;5114399;28;20040;-66
2022/09/25 00:57:13;;;;;;;1.13;1.02;;;;;;;12.02;75.89;99335.72;5113950;28;20067;-67
2022/09/25 00:59:47;;;;;;;0.82;0.82;;;;;;;12.01;76.02;99332.28;5114138;28;20046;-66
2022/09/25 01:02:24;;;;;;;1.17;1.08;;;;;;;12.00;75.99;99335.72;5114415;28;20074;-66
2022/09/25 01:04:55;;;;;;;0.77;0.73;;;;;;;11.99;76.09;99336.59;5114631;28;20484;-66
2022/09/25 01:07:24;;;;;;;0.30;0.30;;;;;;;11.96;76.12;99334.06;5114374;28;20534;-67
2022/09/25 01:09:58;;;;;;;1.85;1.50;;;;;;;11.95;76.38;99337.47;5113990;28;20126;-66
2022/09/25 01:12:28;;;;;;;0.77;0.77;;;;;;;11.96;76.38;99331.50;5113952;28;20063;-67
2022/09/25 01:14:57;;;;;;;0.68;0.65;;;;;;;11.97;76.11;99335.75;5114101;28;20105;-66
2022/09/25 01:17:34;;;;;;;1.48;1.38;;;;;;;11.97;76.40;99325.50;5113849;28;20052;-66
2022/09/25 01:20:16;;;;;;;1.45;1.35;;;;;;;11.99;76.29;99328.91;5113960;28;20097;-66
2022/09/25 01:22:58;;;;;;;0.50;0.40;;;;;;;12.01;76.29;99327.19;5113924;28;20047;-66
2022/09/25 01:25:39;;;;;;;2.38;1.30;;;;;;;12.04;76.61;99333.97;5113837;28;20051;-66
2022/09/25 01:28:29;;;;;;;0.80;0.80;;;;;;;12.01;76.63;99332.28;5113890;28;20051;-66
2022/09/25 01:31:11;;;;;;;7.82;1.27;;;;;;;12.05;76.58;99323.72;5114110;28;20401;-66
2022/09/25 01:33:46;;;;;;;0.68;0.68;;;;;;;12.09;76.96;99338.16;5113827;28;20047;-66
2022/09/25 01:36:22;;;;;;;0.68;0.68;;;;;;;12.13;76.79;99330.44;5113670;28;20044;-66
2022/09/25 01:38:55;;;;;;;2.10;1.90;;;;;;;12.13;76.45;99335.56;5113741;28;20563;-66
2022/09/25 01:41:31;;;;;;;0.90;0.88;;;;;;;12.14;76.54;99327.84;5113708;28;20052;-66
2022/09/25 01:44:03;;;;;;;1.90;1.33;;;;;;;12.17;76.52;99337.19;5113702;28;20051;-66
2022/09/25 01:46:40;;;;;;;0.95;0.80;;;;;;;12.15;76.51;99323.59;5113586;28;20047;-66
2022/09/25 01:49:17;;;;;;;0.80;0.80;;;;;;;12.18;76.20;99329.53;5113659;28;20048;-66
2022/09/25 01:51:51;;;;;;;2.20;1.08;;;;;;;12.19;76.12;99323.53;5113694;28;20097;-66
2022/09/25 01:54:24;;;;;;;0.73;0.63;;;;;;;12.20;76.26;99332.06;5113933;28;20075;-66
2022/09/25 01:56:58;;;;;;;0.50;0.50;;;;;;;12.21;76.14;99334.63;5117249;28;20044;-68
2022/09/25 01:59:34;;;;;;;1.13;0.80;;;;;;;12.19;76.10;99330.38;5117493;28;20054;-66
2022/09/25 02:02:12;;;;;;;2.33;1.02;;;;;;;12.19;76.11;99330.38;5117445;28;20097;-66
2022/09/25 02:04:46;;;;;;;1.33;1.23;;;;;;;12.19;76.08;99325.25;5117386;28;20047;-67
2022/09/25 02:07:21;;;;;;;0.63;0.63;;;;;;;12.21;75.98;99323.53;5117269;28;20056;-66
2022/09/25 02:09:54;;;;;;;0.98;0.63;;;;;;;12.21;75.94;99326.09;5117296;28;20503;-67
2022/09/25 02:12:25;;;;;;;1.25;1.15;;;;;;;12.19;75.91;99328.66;5117219;28;20501;-67
2022/09/25 02:15:00;;;;;;;2.47;1.10;;;;;;;12.21;76.16;99328.66;5116017;28;20039;-66
2022/09/25 02:22:59;;;;;;;1.20;1.10;;;;;;;12.19;76.18;99320.16;5117051;28;20043;-66
2022/09/25 02:25:36;;;;;;;1.75;1.65;;;;;;;12.14;76.32;99312.50;5117796;28;20462;-66
2022/09/25 02:28:05;;;;;;;1.02;0.95;;;;;;;12.12;76.37;99321.91;5117189;28;20100;-66
2022/09/25 02:30:33;;;;;;;1.08;0.73;;;;;;;12.10;76.23;99323.66;5117169;27;20043;-66
2022/09/25 02:33:04;;;;;;;0.40;0.40;;;;;;;12.00;76.42;99312.69;5115722;28;20040;-66
2022/09/25 02:35:33;;;;;;;0.25;0.25;;;;;;;12.07;76.57;99319.41;5117022;28;20739;-67
2022/09/25 02:38:03;;;;;;;1.15;0.90;;;;;;;12.08;76.79;99323.69;5116647;28;20054;-66
2022/09/25 02:40:42;;;;;;;0.95;0.77;;;;;;;12.12;76.81;99323.66;5116976;28;20471;-66
2022/09/25 02:43:23;;;;;;;0.50;0.50;;;;;;;12.12;76.59;99324.47;5116725;27;20505;-66
2022/09/25 02:46:03;;;;;;;3.15;1.05;;;;;;;12.15;76.76;99323.59;5116578;28;20058;-66
2022/09/25 02:48:43;;;;;;;0.85;0.80;;;;;;;12.18;76.83;99333.78;5116536;28;20098;-66
2022/09/25 02:51:19;;;;;;;5.72;1.27;;;;;;;12.18;76.82;99328.69;5116510;28;20059;-66
2022/09/25 02:53:56;;;;;;;1.33;1.23;;;;;;;12.18;76.74;99328.69;5116440;28;20048;-66
2022/09/25 02:56:30;;;;;;;0.47;0.47;;;;;;;12.19;76.70;99326.09;5116313;27;20071;-66
2022/09/25 02:59:06;;;;;;;0.68;0.68;;;;;;;12.19;76.82;99322.72;5116115;28;20063;-66
2022/09/25 03:01:40;;;;;;;1.13;0.75;;;;;;;12.21;76.74;99318.41;5115094;28;20493;-66
2022/09/25 03:04:12;;;;;;;0.63;0.63;;;;;;;12.23;76.83;99324.34;5116549;27;20048;-66
2022/09/25 03:06:42;;;;;;;1.15;1.10;;;;;;;12.25;76.76;99320.06;5115717;28;20039;-67
2022/09/25 03:09:13;;;;;;;2.80;1.23;;;;;;;12.26;76.78;99319.19;5116376;28;20043;-66
2022/09/25 03:11:43;;;;;;;0.70;0.70;;;;;;;12.26;76.68;99317.47;5116418;28;20051;-66
2022/09/25 03:14:11;;;;;;;1.07;0.97;;;;;;;12.27;76.69;99323.44;5116087;28;20050;-66
2022/09/25 03:16:46;;;;;;;0.82;0.80;;;;;;;12.29;76.78;99316.56;5116191;28;20083;-66
2022/09/25 03:19:18;;;;;;;0.30;0.30;;;;;;;12.31;76.72;99314.88;5116125;28;20413;-67
2022/09/25 03:21:48;;;;;;;0.82;0.82;;;;;;;12.33;76.94;99328.47;5115858;28;20057;-66
2022/09/25 03:24:18;;;;;;;0.55;0.47;;;;;;;12.33;76.67;99328.47;5115826;28;20499;-66
2022/09/25 03:26:47;;;;;;;0.88;0.85;;;;;;;12.32;76.72;99316.53;5115801;28;20044;-66
2022/09/25 03:29:16;;;;;;;1.10;1.00;;;;;;;12.32;76.83;99311.41;5115683;28;20036;-66
2022/09/25 03:31:45;;;;;;;1.20;0.63;;;;;;;12.32;76.71;99306.31;5115622;28;20043;-66
2022/09/25 03:34:18;;;;;;;2.72;1.30;;;;;;;12.32;76.81;99307.16;5115585;28;20035;-67
2022/09/25 03:36:47;;;;;;;1.85;0.57;;;;;;;12.34;76.99;99307.97;5115844;28;20485;-66
2022/09/25 03:39:17;;;;;;;1.10;0.98;;;;;;;12.34;77.04;99302.00;5116372;28;20039;-66
2022/09/25 03:41:47;;;;;;;2.28;0.80;;;;;;;12.33;77.06;99303.75;5115476;27;20089;-67
2022/09/25 03:44:16;;;;;;;1.27;1.10;;;;;;;12.33;77.10;99302.91;5115493;28;20126;-66
2022/09/25 03:46:45;;;;;;;0.85;0.85;;;;;;;12.37;77.28;99302.81;5115347;28;20508;-66
2022/09/25 03:49:13;;;;;;;0.90;0.85;;;;;;;12.39;77.15;99303.66;5115638;28;20046;-66
2022/09/25 03:51:43;;;;;;;1.05;0.60;;;;;;;12.40;77.25;99304.50;5115207;28;20043;-66
2022/09/25 03:54:12;;;;;;;0.80;0.80;;;;;;;12.38;77.30;99308.81;5115217;28;20048;-67
2022/09/25 03:56:41;;;;;;;0.40;0.40;;;;;;;12.35;77.31;99311.38;5115795;27;20032;-66
2022/09/25 03:59:10;;;;;;;0.50;0.50;;;;;;;12.34;77.53;99309.69;5114946;28;20055;-67
2022/09/25 04:01:39;;;;;;;1.60;1.48;;;;;;;12.33;77.35;99313.97;5115062;28;20051;-66
2022/09/25 04:04:08;;;;;;;0.65;0.65;;;;;;;12.32;77.56;99322.50;5115074;28;20043;-67
2022/09/25 04:06:36;;;;;;;1.23;1.13;;;;;;;12.35;77.44;99324.19;5115049;28;20148;-67
2022/09/25 04:09:07;;;;;;;1.75;1.27;;;;;;;12.36;77.44;99323.31;5114922;28;20039;-67
2022/09/25 04:11:36;;;;;;;1.92;1.35;;;;;;;12.36;77.42;99318.19;5114858;28;20044;-66
2022/09/25 04:14:05;;;;;;;1.13;1.02;;;;;;;12.37;77.33;99312.22;5114857;28;20135;-66
2022/09/25 04:16:34;;;;;;;1.13;0.77;;;;;;;12.36;77.17;99318.19;5113539;28;20044;-66
2022/09/25 04:19:04;;;;;;;0.50;0.50;;;;;;;12.36;77.22;99318.19;5114298;28;20434;-66
2022/09/25 04:21:32;;;;;;;0.75;0.70;;;;;;;12.32;77.37;99306.31;5114603;28;20043;-66
2022/09/25 04:26:41;;;;;;;1.20;1.10;;;;;;;12.27;77.19;99297.84;5114718;28;20047;-66
2022/09/25 04:29:10;;;;;;;2.13;1.08;;;;;;;12.29;77.26;99293.53;5114881;28;20633;-66
2022/09/25 04:31:39;;;;;;;3.35;1.25;;;;;;;12.33;77.41;99292.66;5114494;28;20050;-66
2022/09/25 04:34:06;;;;;;;1.23;0.70;;;;;;;12.34;77.43;99294.31;5114457;27;20036;-66
2022/09/25 04:36:35;;;;;;;0.43;0.43;;;;;;;12.32;77.55;99291.81;5114382;28;20485;-67
2022/09/25 04:39:04;;;;;;;0.75;0.70;;;;;;;12.35;77.44;99296.03;5114358;28;20119;-66
2022/09/25 04:41:33;;;;;;;0.70;0.70;;;;;;;12.34;77.54;99286.66;5114378;28;20047;-66
2022/09/25 04:44:06;;;;;;;0.60;0.60;;;;;;;12.35;77.35;99289.22;5114314;28;20048;-67
2022/09/25 04:46:34;;;;;;;1.17;1.08;;;;;;;12.37;77.32;99289.19;5114315;28;20044;-66
2022/09/25 04:49:03;;;;;;;0.90;0.85;;;;;;;12.39;77.48;99283.16;5114286;28;20374;-66
2022/09/25 04:51:32;;;;;;;1.23;1.13;;;;;;;12.43;77.15;99286.56;5114534;28;20122;-66
2022/09/25 04:54:01;;;;;;;1.23;0.75;;;;;;;12.43;77.28;99294.22;5114120;28;20039;-66
2022/09/25 04:56:29;;;;;;;1.48;1.38;;;;;;;12.41;77.52;99313.84;5114395;28;20111;-67
2022/09/25 04:58:58;;;;;;;0.95;0.90;;;;;;;12.37;77.69;99309.66;5113785;28;20047;-66
2022/09/25 05:01:28;;;;;;;0.77;0.77;;;;;;;12.39;77.78;99313.88;5114151;28;20043;-66
2022/09/25 05:03:57;;;;;;;0.63;0.63;;;;;;;12.38;77.78;99311.34;5114087;28;20130;-66
2022/09/25 05:06:26;;;;;;;0.63;0.60;;;;;;;12.39;77.82;99313.88;5114086;28;20048;-66
2022/09/25 05:08:56;;;;;;;0.73;0.73;;;;;;;12.43;77.88;99317.25;5114641;28;20401;-66
2022/09/25 05:11:24;;;;;;;1.33;0.95;;;;;;;12.43;77.88;99324.94;5113969;28;20367;-66
2022/09/25 05:13:53;;;;;;;0.75;0.68;;;;;;;12.44;77.77;99319.78;5114450;28;20039;-66
2022/09/25 05:16:21;;;;;;;0.90;0.90;;;;;;;12.47;77.54;99321.47;5113821;28;20036;-66
2022/09/25 05:18:52;;;;;;;2.40;1.85;;;;;;;12.49;77.47;99319.72;5113897;28;20043;-66
2022/09/25 05:21:20;;;;;;;2.05;1.85;;;;;;;12.50;77.56;99317.13;5113972;28;20509;-66
2022/09/25 05:23:49;;;;;;;0.80;0.75;;;;;;;12.52;77.49;99319.69;5114158;28;20389;-66
2022/09/25 05:26:18;;;;;;;1.20;1.10;;;;;;;12.55;77.75;99332.41;5113825;28;20089;-66
2022/09/25 05:28:50;;;;;;;1.58;0.95;;;;;;;12.55;77.53;99335.81;5114507;28;20047;-67
2022/09/25 05:31:19;;;;;;;1.27;1.17;;;;;;;12.54;77.79;99328.19;5118087;28;20082;-66
2022/09/25 05:33:47;;;;;;;0.67;0.67;;;;;;;12.59;77.66;99326.41;5118022;28;20043;-66
2022/09/25 05:36:18;;;;;;;1.02;0.85;;;;;;;12.61;77.81;99319.53;5117811;28;20123;-66
2022/09/25 05:38:47;;;;;;;3.20;1.40;;;;;;;12.62;77.59;99311.00;5118173;28;20105;-66
2022/09/25 05:41:16;;;;;;;1.10;1.00;;;;;;;12.64;77.57;99309.25;5117881;28;20036;-67
2022/09/25 05:43:46;;;;;;;0.73;0.73;;;;;;;12.67;77.78;99310.03;5117768;28;20497;-67
2022/09/25 05:46:15;;;;;;;0.90;0.85;;;;;;;12.65;78.01;99308.38;5117694;28;20104;-67
2022/09/25 05:48:44;;;;;;;0.80;0.77;;;;;;;12.73;78.07;99314.25;5118307;28;20032;-67
2022/09/25 05:51:12;;;;;;;1.10;0.90;;;;;;;12.76;77.66;99320.13;5117611;28;20039;-66
2022/09/25 05:53:42;;;;;;;1.10;1.00;;;;;;;12.82;77.32;99314.09;5118193;28;20127;-66
2022/09/25 05:56:11;;;;;;;1.67;1.10;;;;;;;12.87;77.14;99311.44;5117738;28;20508;-66
2022/09/25 05:58:40;;;;;;;0.50;0.50;;;;;;;12.86;76.83;99309.78;5117441;28;20039;-66
2022/09/25 06:01:09;;;;;;;1.70;1.60;;;;;;;12.85;76.86;99308.06;5117475;28;20504;-66
2022/09/25 06:03:37;;;;;;;0.80;0.80;;;;;;;12.93;76.36;99319.91;5117484;28;20043;-66
2022/09/25 06:06:06;;;;;;;1.73;1.20;;;;;;;12.98;76.37;99318.09;5117303;28;20035;-66
2022/09/25 06:08:35;;;;;;;2.77;1.47;;;;;;;13.05;75.95;99322.25;5117310;28;20046;-66
2022/09/25 06:11:06;;;;;;;9.65;3.60;;;;;;;13.07;75.54;99317.16;5117273;28;20439;-66
2022/09/25 06:13:36;;;;;;;6.03;2.90;;;;;;;13.07;75.54;99319.69;5117201;28;20044;-66
2022/09/25 06:16:13;;;;;;;1.20;1.10;;;;;;;13.07;75.66;99320.56;5117120;28;20134;-67
2022/09/25 06:18:42;;;;;;;0.52;0.52;;;;;;;13.10;75.64;99310.22;5117024;28;20044;-66
2022/09/25 06:21:10;;;;;;;0.65;0.65;;;;;;;13.13;75.56;99310.19;5117585;28;20056;-67
2022/09/25 06:23:39;;;;;;;1.30;1.20;;;;;;;13.20;75.47;99311.78;5117036;28;20482;-66
2022/09/25 06:26:09;;;;;;;1.42;1.25;;;;;;;13.28;75.55;99298.81;5117362;28;20070;-66
2022/09/25 06:28:38;;;;;;;2.15;1.75;;;;;;;13.34;75.88;99303.88;5116849;28;20050;-67
2022/09/25 06:31:07;;;;;;;1.42;1.17;;;;;;;13.38;75.59;99310.63;5117195;28;20035;-66
2022/09/25 06:33:35;;;;;;;3.35;1.50;;;;;;;13.40;75.03;99319.97;5116791;28;20092;-66
2022/09/25 06:36:06;;;;;;;1.23;1.13;;;;;;;13.40;75.16;99314.84;5116644;28;20058;-67
2022/09/25 06:38:35;;;;;;;0.85;0.80;;;;;;;13.47;75.21;99317.28;5116747;28;20044;-67
2022/09/25 06:41:05;;;;;;;1.48;1.38;;;;;;;13.53;75.25;99319.75;5115827;28;20046;-67
2022/09/25 06:43:35;;;;;;;2.80;0.88;;;;;;;13.58;74.75;99323.91;5116694;28;20477;-67
2022/09/25 06:46:04;;;;;;;0.70;0.70;;;;;;;13.64;74.88;99317.81;5116629;28;20055;-66
2022/09/25 06:48:33;;;;;;;0.80;0.80;;;;;;;13.70;74.58;99325.41;5116661;28;20036;-66
2022/09/25 06:51:02;;;;;;;1.55;1.45;;;;;;;13.76;74.93;99330.41;5116424;28;20260;-67
2022/09/25 06:53:30;;;;;;;1.75;0.95;;;;;;;13.83;75.02;99319.16;5116347;28;20042;-67
2022/09/25 06:55:59;;;;;;;1.80;1.33;;;;;;;13.87;74.53;99315.63;5116700;28;20393;-66
2022/09/25 06:58:30;;;;;;;1.10;1.00;;;;;;;13.90;74.65;99320.72;5115966;28;20523;-67
2022/09/25 07:01:00;;;;;;;1.20;1.02;;;;;;;13.95;74.75;99324.03;5116300;28;20047;-67
2022/09/25 07:06:15;;;;;;;1.50;1.20;;;;;;;14.07;74.47;99316.09;5116539;28;20463;-66
2022/09/25 07:08:44;;;;;;;0.50;0.50;;;;;;;14.07;74.22;99308.41;5116096;28;20108;-66
2022/09/25 07:11:15;;;;;;;0.60;0.60;;;;;;;14.18;74.14;99321.84;5115165;28;20047;-66
2022/09/25 07:13:44;;;;;;;0.52;0.52;;;;;;;14.22;73.70;99323.47;5116062;28;20081;-66
2022/09/25 07:16:16;;;;;;;1.20;1.10;;;;;;;14.25;73.09;99313.16;5116129;28;20032;-66
2022/09/25 07:18:46;;;;;;;2.08;1.50;;;;;;;14.33;73.24;99316.41;5115938;27;20067;-66
2022/09/25 07:21:17;;;;;;;0.77;0.77;;;;;;;14.37;72.84;99319.78;5116208;28;20074;-66
2022/09/25 07:23:48;;;;;;;1.83;0.80;;;;;;;14.43;72.12;99311.94;5116443;28;20447;-66
2022/09/25 07:26:21;;;;;;;0.85;0.85;;;;;;;14.50;72.50;99318.63;5115879;28;20058;-67
2022/09/25 07:28:55;;;;;;;0.63;0.63;;;;;;;14.57;72.07;99315.88;5115782;28;20043;-66
2022/09/25 07:31:27;;;;;;;2.45;1.48;;;;;;;14.66;71.50;99318.22;5116073;28;20050;-66
2022/09/25 07:33:57;;;;;;;1.63;1.35;;;;;;;14.75;71.26;99320.59;5115598;28;20126;-66
2022/09/25 07:36:26;;;;;;;0.68;0.63;;;;;;;14.83;70.59;99317.84;5115647;28;20092;-65
2022/09/25 07:38:55;;;;;;;1.23;1.13;;;;;;;14.92;69.56;99311.66;5115445;28;20481;-66
2022/09/25 07:41:24;;;;;;;1.20;0.75;;;;;;;14.97;68.88;99320.09;5115532;28;20051;-66
2022/09/25 07:43:55;;;;;;;1.33;0.95;;;;;;;15.04;68.40;99317.34;5115778;28;20040;-66
2022/09/25 07:46:45;;;;;;;1.38;1.20;;;;;;;15.10;68.72;99311.19;5115480;28;20050;-65
2022/09/25 07:49:14;;;;;;;0.75;0.75;;;;;;;15.15;67.63;99305.06;5115705;28;20456;-66
2022/09/25 07:51:43;;;;;;;0.75;0.75;;;;;;;15.26;67.20;99294.50;5115252;28;20127;-66
2022/09/25 07:54:11;;;;;;;1.63;1.52;;;;;;;15.35;67.24;99294.25;5115258;28;20064;-66
2022/09/25 07:56:40;;;;;;;0.70;0.70;;;;;;;15.40;66.77;99295.00;5115492;28;20393;-66
2022/09/25 07:59:09;;;;;;;1.95;1.52;;;;;;;15.45;67.12;99288.03;5114929;28;20052;-66
2022/09/25 08:01:38;;;;;;;0.60;0.60;;;;;;;15.54;66.48;99281.78;5115194;28;20549;-66
2022/09/25 08:04:15;;;;;;;1.10;1.00;;;;;;;15.54;66.59;99285.22;5114995;28;20511;-66
2022/09/25 08:06:43;;;;;;;1.90;1.35;;;;;;;15.54;66.63;99282.63;5115041;28;20051;-65
2022/09/25 08:09:12;;;;;;;2.78;1.52;;;;;;;15.51;66.12;99298.16;5114859;27;20040;-66
2022/09/25 08:11:41;;;;;;;0.60;0.60;;;;;;;15.48;66.32;99297.41;5115109;28;20458;-66
2022/09/25 08:14:13;;;;;;;1.08;0.98;;;;;;;15.47;66.84;99301.69;5114875;28;20044;-65
2022/09/25 08:16:42;;;;;;;1.10;1.00;;;;;;;15.51;66.93;99293.00;5114821;28;20050;-66
2022/09/25 08:19:12;;;;;;;2.05;1.67;;;;;;;15.57;66.49;99295.41;5115013;28;20041;-66
2022/09/25 08:21:42;;;;;;;1.50;1.20;;;;;;;15.64;66.58;99294.38;5115077;28;20450;-66
2022/09/25 08:24:11;;;;;;;4.53;2.15;;;;;;;15.66;66.48;99291.75;5114700;28;20055;-65
2022/09/25 08:26:40;;;;;;;0.60;0.60;;;;;;;15.66;66.03;99292.59;5114636;28;20039;-65
2022/09/25 08:29:09;;;;;;;0.80;0.80;;;;;;;15.67;65.86;99291.69;5114889;28;20035;-66
2022/09/25 08:31:38;;;;;;;1.17;0.93;;;;;;;15.72;65.95;99287.25;5114507;28;20481;-66
2022/09/25 08:34:09;;;;;;;0.90;0.70;;;;;;;15.80;65.77;99285.34;5114447;27;20036;-66
2022/09/25 08:36:59;;;;;;;0.75;0.73;;;;;;;15.92;65.31;99284.97;5114493;28;20566;-65
2022/09/25 08:39:28;;;;;;;1.08;1.00;;;;;;;15.97;65.49;99277.97;5114394;28;20044;-66
2022/09/25 08:41:57;;;;;;;0.45;0.45;;;;;;;16.12;65.55;99286.13;5114603;28;20378;-66
2022/09/25 08:44:30;;;;;;;1.98;0.80;;;;;;;16.18;64.77;99283.38;5114395;27;20052;-66
2022/09/25 08:50:02;;;;;;;0.57;0.57;;;;;;;16.31;63.95;99292.44;5114608;28;20146;-66
2022/09/25 08:52:34;;;;;;;1.02;0.90;;;;;;;16.34;63.91;99290.59;5114490;28;20043;-66
2022/09/25 08:55:03;;;;;;;1.60;0.95;;;;;;;16.37;63.92;99292.22;5114173;28;20057;-66
2022/09/25 08:57:36;;;;;;;0.73;0.73;;;;;;;16.46;64.54;99303.09;5114766;28;20036;-66
2022/09/25 09:00:09;;;;;;;0.63;0.63;;;;;;;16.53;64.47;99296.88;5114050;28;20032;-66
2022/09/25 09:02:41;;;;;;;0.65;0.65;;;;;;;16.54;64.47;99293.44;5114474;28;20065;-66
2022/09/25 09:05:20;;;;;;;0.88;0.88;;;;;;;16.58;64.27;99296.78;5113681;28;20434;-66
2022/09/25 09:07:56;;;;;;;1.00;1.00;;;;;;;16.55;64.20;99289.13;5114011;28;20071;-66
2022/09/25 09:10:34;;;;;;;0.80;0.80;;;;;;;16.55;64.11;99286.56;5114039;28;20054;-65
2022/09/25 09:13:13;;;;;;;0.70;0.70;;;;;;;16.54;64.57;99290.88;5114043;28;20121;-66
2022/09/25 09:15:47;;;;;;;1.05;1.00;;;;;;;16.57;64.64;99289.91;5114001;28;20051;-66
2022/09/25 09:18:25;;;;;;;1.38;1.17;;;;;;;16.59;64.46;99288.13;5114233;28;20043;-65
2022/09/25 09:20:56;;;;;;;1.27;1.17;;;;;;;16.62;64.55;99288.06;5112882;28;20035;-66
2022/09/25 09:23:33;;;;;;;1.45;1.00;;;;;;;16.58;64.64;99286.47;5114267;28;20456;-66
2022/09/25 09:26:04;;;;;;;1.25;1.15;;;;;;;16.62;64.74;99277.75;5114148;28;20051;-66
2022/09/25 09:28:56;;;;;;;1.10;0.77;;;;;;;16.60;64.83;99292.41;5114241;28;20051;-66
2022/09/25 09:31:30;;;;;;;1.33;1.23;;;;;;;16.62;65.00;99288.06;5113792;28;20039;-66
2022/09/25 09:34:11;;;;;;;1.20;1.10;;;;;;;16.62;64.74;99290.63;5113820;28;20047;-66
2022/09/25 09:36:48;;;;;;;1.05;0.95;;;;;;;16.64;65.00;99291.41;5114020;28;20120;-66
2022/09/25 09:39:26;;;;;;;3.20;2.38;;;;;;;16.67;65.13;99287.03;5113729;28;20059;-66
2022/09/25 09:42:08;;;;;;;1.65;1.15;;;;;;;16.69;65.06;99285.22;5114067;28;20047;-66
2022/09/25 09:44:50;;;;;;;0.63;0.55;;;;;;;16.73;65.14;99299.69;5113769;28;20051;-66
2022/09/25 09:47:39;;;;;;;0.52;0.52;;;;;;;16.68;64.87;99300.72;5113692;28;20405;-66
2022/09/25 09:50:23;;;;;;;1.95;1.85;;;;;;;16.57;65.30;99297.66;5113687;28;20051;-65
2022/09/25 09:53:00;;;;;;;0.60;0.60;;;;;;;16.51;65.50;99295.22;5113644;28;20052;-66
2022/09/25 09:55:39;;;;;;;1.98;1.45;;;;;;;16.49;65.86;99292.69;5114398;28;20055;-65
2022/09/25 09:58:17;;;;;;;0.40;0.40;;;;;;;16.43;65.89;99294.63;5113370;28;20074;-66
2022/09/25 10:00:48;;;;;;;2.70;1.00;;;;;;;16.36;65.99;99290.56;5112643;28;20079;-65
2022/09/25 10:03:22;;;;;;;1.27;1.17;;;;;;;16.31;66.30;99292.44;5113755;28;20069;-65
2022/09/25 10:05:57;;;;;;;3.95;1.15;;;;;;;16.30;66.93;99290.72;5113916;28;20117;-64
2022/09/25 10:08:25;;;;;;;1.95;1.33;;;;;;;16.27;66.74;99301.16;5113824;28;20386;-66
2022/09/25 10:10:58;;;;;;;0.80;0.80;;;;;;;16.23;67.34;99294.38;5113751;28;20042;-66
2022/09/25 10:13:32;;;;;;;0.50;0.50;;;;;;;16.16;67.04;99298.03;5113474;28;20109;-65
2022/09/25 10:16:10;;;;;;;1.10;0.93;;;;;;;16.14;67.42;99299.81;5114441;28;20050;-65
2022/09/25 10:18:43;;;;;;;0.60;0.60;;;;;;;16.13;67.38;99298.09;5117363;28;20047;-66
2022/09/25 10:21:16;;;;;;;0.47;0.47;;;;;;;16.12;67.39;99286.13;5117686;28;20560;-66
2022/09/25 10:23:49;;;;;;;0.77;0.77;;;;;;;16.14;67.35;99284.34;5117046;28;20055;-66
2022/09/25 10:26:28;;;;;;;1.00;0.93;;;;;;;16.19;67.13;99280.75;5117414;28;20075;-65
2022/09/25 10:28:59;;;;;;;0.57;0.57;;;;;;;16.23;67.24;99272.03;5116950;28;20043;-66
2022/09/25 10:31:30;;;;;;;0.95;0.85;;;;;;;16.31;67.41;99270.09;5116871;28;20086;-65
2022/09/25 10:34:02;;;;;;;0.95;0.93;;;;;;;16.37;67.21;99276.78;5117174;28;20579;-65
2022/09/25 10:36:36;;;;;;;1.02;0.93;;;;;;;16.41;66.98;99280.97;5117028;28;20472;-66
2022/09/25 10:39:21;;;;;;;0.85;0.77;;;;;;;16.45;67.16;99275.66;5116736;28;20075;-66
2022/09/25 10:42:36;;;;;;;1.20;0.85;;;;;;;16.52;66.96;99281.50;5116598;28;20032;-65
2022/09/25 10:45:16;;;;;;;0.70;0.70;;;;;;;16.50;66.61;99272.94;5116948;28;20047;-66
2022/09/25 10:50:29;;;;;;;1.52;1.27;;;;;;;16.50;66.41;99272.94;5116495;28;20117;-66
2022/09/25 10:52:58;;;;;;;0.67;0.67;;;;;;;16.53;66.60;99280.63;5116822;28;20040;-66
2022/09/25 10:55:30;;;;;;;1.05;0.95;;;;;;;16.45;66.30;99279.97;5116500;28;20048;-66
2022/09/25 10:58:09;;;;;;;2.53;0.88;;;;;;;16.49;66.61;99276.41;5116169;28;20079;-65
2022/09/25 11:00:44;;;;;;;1.17;1.07;;;;;;;16.52;66.03;99266.03;5116200;28;20043;-65
2022/09/25 11:03:20;;;;;;;0.68;0.68;;;;;;;16.55;66.31;99263.38;5116273;27;20082;-65
2022/09/25 11:05:53;;;;;;;1.50;0.85;;;;;;;16.56;66.20;99258.16;5106296;28;20094;-65
2022/09/25 11:08:25;;;;;;;0.63;0.63;;;;;;;16.54;66.32;99256.53;5096391;28;20435;-66
2022/09/25 11:10:56;;;;;;;0.98;0.90;;;;;;;16.57;66.26;99259.00;5096070;28;20048;-65
2022/09/25 11:13:30;;;;;;;0.75;0.75;;;;;;;16.58;66.18;99247.81;5095749;28;20511;-65
2022/09/25 11:16:02;;;;;;;1.50;1.40;;;;;;;16.56;65.68;99267.63;5100969;28;20043;-66
2022/09/25 11:18:43;;;;;;;1.58;1.35;;;;;;;16.56;65.78;99267.63;5116069;28;20048;-66
2022/09/25 11:21:23;;;;;;;0.70;0.68;;;;;;;16.54;65.94;99265.09;5115932;28;20088;-65
2022/09/25 11:24:11;;;;;;;2.75;0.95;;;;;;;16.51;65.87;99260.03;5116238;28;20108;-66
2022/09/25 11:26:48;;;;;;;0.47;0.47;;;;;;;16.53;66.42;99252.28;5107900;28;20036;-65
2022/09/25 11:29:24;;;;;;;1.63;1.52;;;;;;;16.51;66.09;99248.84;5095447;28;20043;-65
2022/09/25 11:31:58;;;;;;;2.92;1.05;;;;;;;16.46;66.17;99250.75;5095658;28;20457;-66
2022/09/25 11:34:50;;;;;;;0.77;0.73;;;;;;;16.48;66.36;99244.66;5095277;28;20048;-65
2022/09/25 11:37:24;;;;;;;2.33;0.82;;;;;;;16.53;66.50;99241.97;5096164;28;20056;-66
2022/09/25 11:42:45;;;;;;;1.02;0.90;;;;;;;16.56;66.59;99242.69;5095278;28;20097;-67
2022/09/25 11:45:22;;;;;;;1.67;1.05;;;;;;;16.56;66.77;99252.16;5114968;28;20073;-65
2022/09/25 11:47:57;;;;;;;0.60;0.60;;;;;;;16.55;66.79;99240.19;5115382;28;20051;-65
2022/09/25 11:50:37;;;;;;;0.77;0.77;;;;;;;16.54;67.00;99241.06;5115351;28;20100;-65
2022/09/25 11:53:18;;;;;;;1.30;1.20;;;;;;;16.51;67.36;99241.13;5115327;28;20046;-66
2022/09/25 11:56:07;;;;;;;0.60;0.60;;;;;;;16.44;67.45;99249.94;5115533;28;20048;-66
2022/09/25 11:58:49;;;;;;;4.22;0.98;;;;;;;16.47;67.70;99247.25;5115124;28;20051;-65
2022/09/25 12:01:31;;;;;;;1.42;0.88;;;;;;;16.45;67.71;99228.44;5115424;28;20039;-64
2022/09/25 12:04:22;;;;;;;0.85;0.85;;;;;;;16.48;67.51;99238.66;5115328;28;20157;-66
2022/09/25 12:07:08;;;;;;;0.57;0.57;;;;;;;16.50;67.88;99227.41;5114055;28;20135;-66
2022/09/25 12:10:02;;;;;;;1.17;0.80;;;;;;;16.54;68.03;99223.88;5114956;28;20044;-66
2022/09/25 12:12:40;;;;;;;0.65;0.65;;;;;;;16.57;68.29;99217.78;5114902;28;20050;-66
2022/09/25 12:15:20;;;;;;;2.15;1.10;;;;;;;16.52;68.18;99215.34;5114988;28;20078;-65
2022/09/25 12:17:58;;;;;;;1.90;1.33;;;;;;;16.52;68.07;99204.19;5114786;28;20079;-65
2022/09/25 12:20:38;;;;;;;1.92;1.08;;;;;;;16.51;68.56;99212.78;5114735;28;20054;-66
2022/09/25 12:23:17;;;;;;;0.98;0.93;;;;;;;16.52;68.72;99209.34;5114737;28;20039;-66